ButlerWeather Station
Hourly Leaf Wetness Data

Source: University of Missouri

To the bottom of the page

Year Month Day Hour Leaf Wetness Total
Precipitation
Avg. Temp Avg. Rel.
Humidity
Wind
Speed
CST mV in mm F C % mph
2022 08 29 1:00 262.1 0.0 0.00 77.3 25.2 76.81 n/a
2022 08 29 2:00 262.5 0.0 0.00 76.0 24.5 78.6 n/a
2022 08 29 3:00 263.2 0.0 0.00 74.9 23.8 80.5 n/a
2022 08 29 4:00 263.4 0.0 0.00 74.2 23.4 81.5 n/a
2022 08 29 5:00 263.6 0.0 0.00 73.5 23.1 83 n/a
2022 08 29 6:00 264.8 0.0 0.00 72.6 22.6 85.6 n/a
2022 08 29 7:00 264.4 0.0 0.00 72.6 22.5 86.9 n/a
2022 08 29 8:00 261.5 0.0 0.00 75.6 24.2 82.3 n/a
2022 08 29 9:00 261.0 0.0 0.00 78.8 26.0 77.15 n/a
2022 08 29 10:00 259.5 0.0 0.00 82.4 28.0 70.59 n/a
2022 08 29 11:00 258.9 0.0 0.00 84.9 29.4 64.94 n/a
2022 08 29 12:00 258.9 0.0 0.00 86.2 30.1 60.62 n/a
2022 08 29 13:00 Wet 377.7 0.7 18.03 79.6 26.4 75.1 n/a
2022 08 29 14:00 Wet 489.9 0.3 7.62 70.7 21.5 90 n/a
2022 08 29 15:00 Wet 316.7 0.0 0.25 70.8 21.6 86.5 n/a
2022 08 29 16:00 265.1 0.0 0.00 73.8 23.2 79.08 n/a
2022 08 29 17:00 262.0 0.0 0.00 73.9 23.3 77.45 n/a
2022 08 29 18:00 262.6 0.0 0.00 73.4 23.0 81 n/a
2022 08 29 19:00 263.3 0.0 0.00 72.2 22.3 82.9 n/a
2022 08 29 20:00 270.1 0.0 0.00 70.9 21.6 86.4 n/a
2022 08 29 21:00 Wet 290.9 0.0 0.00 69.5 20.8 91.1 n/a
2022 08 29 22:00 Wet 289.8 0.0 0.00 68.9 20.5 95.3 n/a
2022 08 29 23:00 Wet 291.2 0.0 0.00 68.3 20.2 96.2 n/a
2022 08 29 24:00 Wet 293.6 0.0 0.00 67.8 19.9 97 n/a
2022 08 30 1:00 Wet 289.9 0.0 0.00 67.7 19.8 96.9 n/a
2022 08 30 2:00 Wet 294.3 0.0 0.00 67.5 19.7 97.1 n/a
2022 08 30 3:00 Wet 310.7 0.0 0.00 67.2 19.6 97.7 n/a
2022 08 30 4:00 Wet 334.0 0.0 0.00 67.2 19.5 98.5 n/a
2022 08 30 5:00 Wet 343.6 0.0 0.00 67.1 19.5 98.9 n/a
2022 08 30 6:00 Wet 355.6 0.0 0.00 66.8 19.3 99 n/a
2022 08 30 7:00 Wet 363.8 0.0 0.00 67.0 19.5 99.2 n/a
2022 08 30 8:00 271.9 0.0 0.00 70.0 21.1 98 n/a
2022 08 30 9:00 259.7 0.0 0.00 73.8 23.2 84.6 n/a
2022 08 30 10:00 258.4 0.0 0.00 78.0 25.5 71.92 n/a
2022 08 30 11:00 257.9 0.0 0.00 80.9 27.1 62.55 n/a
2022 08 30 12:00 257.7 0.0 0.00 82.7 28.1 51.75 n/a
2022 08 30 13:00 257.1 0.0 0.00 83.6 28.7 42.35 n/a
2022 08 30 14:00 256.8 0.0 0.00 84.7 29.3 38.73 n/a
2022 08 30 15:00 257.5 0.0 0.00 84.9 29.4 39.89 n/a
2022 08 30 16:00 258.0 0.0 0.00 85.0 29.4 41.1 n/a
2022 08 30 17:00 258.0 0.0 0.00 84.9 29.4 41.59 n/a
2022 08 30 18:00 258.0 0.0 0.00 83.3 28.5 40.47 n/a
2022 08 30 19:00 258.5 0.0 0.00 79.9 26.6 45.93 n/a
2022 08 30 20:00 259.7 0.0 0.00 75.4 24.1 52.32 n/a
2022 08 30 21:00 260.4 0.0 0.00 72.7 22.6 57.75 n/a
2022 08 30 22:00 261.4 0.0 0.00 69.3 20.7 65.32 n/a
2022 08 30 23:00 265.6 0.0 0.00 66.8 19.4 75.11 n/a
2022 08 30 24:00 273.9 0.0 0.00 64.3 18.0 83.7 n/a
2022 08 31 1:00 272.4 0.0 0.00 64.0 17.8 79.86 n/a
2022 08 31 2:00 283.8 0.0 0.00 62.3 16.9 82.9 n/a
2022 08 31 3:00 Wet 314.0 0.0 0.00 60.7 15.9 88.5 n/a
2022 08 31 4:00 Wet 343.8 0.0 0.00 59.9 15.5 90.6 n/a
2022 08 31 5:00 Wet 362.4 0.0 0.00 60.0 15.5 90 n/a
2022 08 31 6:00 Wet 372.4 0.0 0.00 59.6 15.3 92.4 n/a
2022 08 31 7:00 Wet 348.0 0.0 0.00 60.4 15.8 88.9 n/a
2022 08 31 8:00 264.4 0.0 0.00 63.9 17.7 86.2 n/a
2022 08 31 9:00 258.2 0.0 0.00 70.9 21.6 63.85 n/a
2022 08 31 10:00 256.9 0.0 0.00 75.5 24.2 54.32 n/a
2022 08 31 11:00 256.3 0.0 0.00 78.5 25.8 44.74 n/a
2022 08 31 12:00 256.2 0.0 0.00 80.1 26.7 44.01 n/a
2022 08 31 13:00 256.5 0.0 0.00 80.4 26.9 42.81 n/a
2022 08 31 14:00 256.5 0.0 0.00 81.5 27.5 39.57 n/a
2022 08 31 15:00 257.0 0.0 0.00 82.2 27.9 38.87 n/a
2022 08 31 16:00 257.3 0.0 0.00 82.6 28.1 37.89 n/a
2022 08 31 17:00 257.3 0.0 0.00 82.4 28.0 38.72 n/a
2022 08 31 18:00 257.5 0.0 0.00 81.2 27.3 43.85 n/a
2022 08 31 19:00 258.8 0.0 0.00 78.1 25.6 54.16 n/a
2022 08 31 20:00 260.6 0.0 0.00 72.8 22.7 64.85 n/a
2022 08 31 21:00 261.8 0.0 0.00 70.4 21.3 70.7 n/a
2022 08 31 22:00 262.7 0.0 0.00 68.4 20.2 74.06 n/a
2022 08 31 23:00 262.8 0.0 0.00 67.0 19.4 74.8 n/a
2022 08 31 24:00 264.0 0.0 0.00 65.5 18.6 77.96 n/a
2022 09 01 1:00 264.1 0.0 0.00 65.1 18.4 77.88 n/a
2022 09 01 2:00 264.8 0.0 0.00 64.0 17.8 79.58 n/a
2022 09 01 3:00 265.4 0.0 0.00 63.0 17.2 80.7 n/a
2022 09 01 4:00 270.6 0.0 0.00 61.6 16.5 83.9 n/a
2022 09 01 5:00 277.1 0.0 0.00 60.7 16.0 85.4 n/a
2022 09 01 6:00 Wet 285.8 0.0 0.00 59.9 15.5 87.5 n/a
2022 09 01 7:00 273.0 0.0 0.00 61.2 16.2 85.4 n/a
2022 09 01 8:00 260.4 0.0 0.00 66.7 19.3 74.36 n/a
2022 09 01 9:00 259.6 0.0 0.00 70.6 21.4 73.27 n/a
2022 09 01 10:00 258.1 0.0 0.00 75.5 24.2 65.99 n/a
2022 09 01 11:00 257.5 0.0 0.00 79.5 26.4 60.17 n/a
2022 09 01 12:00 256.6 0.0 0.00 82.3 27.9 51.09 n/a
2022 09 01 13:00 256.7 0.0 0.00 83.7 28.7 44.8 n/a
2022 09 01 14:00 256.9 0.0 0.00 84.7 29.3 45.37 n/a
2022 09 01 15:00 257.6 0.0 0.00 85.5 29.7 49.52 n/a
2022 09 01 16:00 257.9 0.0 0.00 85.4 29.7 48.36 n/a
2022 09 01 17:00 258.0 0.0 0.00 84.6 29.2 52.88 n/a
2022 09 01 18:00 258.7 0.0 0.00 84.0 28.9 56.28 n/a
2022 09 01 19:00 259.9 0.0 0.00 80.5 26.9 63.53 n/a
2022 09 01 20:00 260.7 0.0 0.00 78.0 25.5 69.25 n/a
2022 09 01 21:00 261.0 0.0 0.00 76.7 24.8 71.93 n/a
2022 09 01 22:00 261.2 0.0 0.00 75.8 24.3 71.96 n/a
2022 09 01 23:00 261.5 0.0 0.00 74.7 23.7 76.07 n/a
2022 09 01 24:00 262.1 0.0 0.00 73.7 23.2 80.1 n/a
2022 09 02 1:00 262.3 0.0 0.00 73.3 22.9 80.8 n/a
2022 09 02 2:00 262.5 0.0 0.00 72.4 22.5 80 n/a
2022 09 02 3:00 262.9 0.0 0.00 71.2 21.8 79.77 n/a
2022 09 02 4:00 263.9 0.0 0.00 70.0 21.1 80.3 n/a
2022 09 02 5:00 269.5 0.0 0.00 68.2 20.1 83.7 n/a
2022 09 02 6:00 264.5 0.0 0.00 67.2 19.6 80.9 n/a
2022 09 02 7:00 264.0 0.0 0.00 67.1 19.5 82 n/a
2022 09 02 8:00 261.6 0.0 0.00 69.4 20.8 79.96 n/a
2022 09 02 9:00 259.9 0.0 0.00 72.0 22.2 77.3 n/a
2022 09 02 10:00 259.4 0.0 0.00 73.7 23.2 73.55 n/a
2022 09 02 11:00 259.0 0.0 0.00 74.9 23.8 72.33 n/a
2022 09 02 12:00 258.7 0.0 0.00 76.3 24.6 69.61 n/a
2022 09 02 13:00 258.6 0.0 0.00 77.7 25.4 66.25 n/a
2022 09 02 14:00 258.7 0.0 0.00 79.2 26.2 63.36 n/a
2022 09 02 15:00 259.3 0.0 0.00 78.8 26.0 61.44 n/a
2022 09 02 16:00 259.7 0.0 0.00 77.2 25.1 62.55 n/a
2022 09 02 17:00 260.0 0.0 0.00 75.7 24.3 67.17 n/a
2022 09 02 18:00 260.5 0.0 0.00 73.4 23.0 72.25 n/a
2022 09 02 19:00 261.7 0.0 0.00 71.3 21.8 76.6 n/a
2022 09 02 20:00 263.3 0.0 0.00 69.4 20.8 82.4 n/a
2022 09 02 21:00 262.7 0.0 0.00 68.9 20.5 82.9 n/a
2022 09 02 22:00 262.9 0.0 0.00 68.8 20.4 83.7 n/a
2022 09 02 23:00 263.3 0.0 0.00 69.0 20.6 84 n/a
2022 09 02 24:00 264.1 0.0 0.00 68.5 20.3 86.2 n/a
2022 09 03 1:00 264.8 0.0 0.00 67.1 19.5 89.6 n/a
2022 09 03 2:00 264.8 0.0 0.00 66.8 19.3 90.6 n/a
2022 09 03 3:00 264.9 0.0 0.00 66.9 19.4 90.3 n/a
2022 09 03 4:00 266.4 0.0 0.00 66.1 18.9 94 n/a
2022 09 03 5:00 268.6 0.0 0.00 65.7 18.7 97.3 n/a
2022 09 03 6:00 270.8 0.0 0.00 65.5 18.6 98.2 n/a
2022 09 03 7:00 275.5 0.0 0.00 65.3 18.5 98.8 n/a
2022 09 03 8:00 269.6 0.0 0.00 65.5 18.6 99.2 n/a
2022 09 03 9:00 263.9 0.0 0.00 66.3 19.1 99.4 n/a
2022 09 03 10:00 260.3 0.0 0.00 69.3 20.7 90.7 n/a
2022 09 03 11:00 258.8 0.0 0.00 73.7 23.2 78.44 n/a
2022 09 03 12:00 258.2 0.0 0.00 77.1 25.1 71.28 n/a
2022 09 03 13:00 258.5 0.0 0.00 79.9 26.6 66.66 n/a
2022 09 03 14:00 258.1 0.0 0.00 82.3 27.9 60 n/a
2022 09 03 15:00 258.5 0.0 0.00 83.6 28.6 57.92 n/a
2022 09 03 16:00 259.0 0.0 0.00 83.4 28.6 58.13 n/a
2022 09 03 17:00 259.3 0.0 0.00 82.6 28.1 58.9 n/a
2022 09 03 18:00 259.3 0.0 0.00 82.3 28.0 58.5 n/a
2022 09 03 19:00 260.5 0.0 0.00 79.8 26.5 65.29 n/a
2022 09 03 20:00 261.7 0.0 0.00 77.3 25.2 72.73 n/a
2022 09 03 21:00 262.3 0.0 0.00 76.0 24.5 78.41 n/a
2022 09 03 22:00 262.3 0.0 0.00 75.4 24.1 79.85 n/a
2022 09 03 23:00 262.9 0.0 0.00 74.7 23.7 81.2 n/a
2022 09 03 24:00 261.9 0.0 0.00 74.0 23.3 69.94 n/a
2022 09 04 1:00 262.2 0.0 0.00 72.1 22.3 74.05 n/a
2022 09 04 2:00 262.8 0.0 0.00 69.8 21.0 78.75 n/a
2022 09 04 3:00 263.0 0.0 0.00 68.3 20.2 81 n/a
2022 09 04 4:00 264.3 0.0 0.00 67.0 19.5 85.9 n/a
2022 09 04 5:00 266.6 0.0 0.00 66.0 18.9 88.8 n/a
2022 09 04 6:00 266.4 0.0 0.00 65.8 18.8 90.1 n/a
2022 09 04 7:00 266.2 0.0 0.00 65.6 18.7 90.5 n/a
2022 09 04 8:00 264.5 0.0 0.00 66.4 19.1 90.8 n/a
2022 09 04 9:00 264.0 0.0 0.00 67.4 19.6 92.8 n/a
2022 09 04 10:00 264.0 0.0 0.00 68.0 20.0 91 n/a
2022 09 04 11:00 263.0 0.0 0.00 69.6 20.9 88.1 n/a
2022 09 04 12:00 261.3 0.0 0.00 72.3 22.4 83.4 n/a
2022 09 04 13:00 260.5 0.0 0.00 75.1 23.9 77.15 n/a
2022 09 04 14:00 259.6 0.0 0.00 78.1 25.6 68.9 n/a
2022 09 04 15:00 259.5 0.0 0.00 80.7 27.0 61.69 n/a
2022 09 04 16:00 260.0 0.0 0.00 79.6 26.4 62.2 n/a
2022 09 04 17:00 260.1 0.0 0.00 79.5 26.4 60.87 n/a
2022 09 04 18:00 260.1 0.0 0.00 79.3 26.3 59.81 n/a
2022 09 04 19:00 260.6 0.0 0.00 77.3 25.2 61.94 n/a
2022 09 04 20:00 262.0 0.0 0.00 73.8 23.2 71.12 n/a
2022 09 04 21:00 262.2 0.0 0.00 72.3 22.4 74.98 n/a
2022 09 04 22:00 263.2 0.0 0.00 70.7 21.5 78.72 n/a
2022 09 04 23:00 263.5 0.0 0.00 69.3 20.7 81 n/a
2022 09 04 24:00 264.5 0.0 0.00 68.1 20.1 83.9 n/a
2022 09 05 1:00 268.9 0.0 0.00 66.7 19.3 87.5 n/a
2022 09 05 2:00 278.8 0.0 0.00 65.3 18.5 91.5 n/a
2022 09 05 3:00 Wet 287.6 0.0 0.00 64.5 18.1 96.2 n/a
2022 09 05 4:00 Wet 302.5 0.0 0.00 63.9 17.7 97.3 n/a
2022 09 05 5:00 Wet 312.0 0.0 0.00 63.8 17.7 97.9 n/a
2022 09 05 6:00 Wet 297.5 0.0 0.00 64.1 17.8 98.6 n/a
2022 09 05 7:00 Wet 308.6 0.0 0.00 64.0 17.8 99.4 n/a
2022 09 05 8:00 Wet 303.1 0.0 0.00 64.6 18.1 99.7 n/a
2022 09 05 9:00 271.7 0.0 0.00 65.3 18.5 99.7 n/a
2022 09 05 10:00 263.3 0.0 0.00 67.6 19.8 93.6 n/a
2022 09 05 11:00 262.5 0.0 0.00 69.9 21.1 82.3 n/a
2022 09 05 12:00 261.8 0.0 0.00 71.1 21.7 78.83 n/a
2022 09 05 13:00 261.4 0.0 0.00 72.0 22.2 76.41 n/a
2022 09 05 14:00 260.6 0.0 0.00 73.4 23.0 74.11 n/a
2022 09 05 15:00 260.5 0.0 0.00 74.4 23.6 71.76 n/a
2022 09 05 16:00 260.5 0.0 0.00 75.3 24.1 69.03 n/a
2022 09 05 17:00 260.7 0.0 0.00 75.7 24.3 69.37 n/a
2022 09 05 18:00 261.1 0.0 0.00 75.8 24.3 68.73 n/a
2022 09 05 19:00 262.3 0.0 0.00 73.8 23.2 73 n/a
2022 09 05 20:00 263.9 0.0 0.00 71.2 21.8 79.23 n/a
2022 09 05 21:00 267.2 0.0 0.00 69.4 20.8 84 n/a
2022 09 05 22:00 270.6 0.0 0.00 68.0 20.0 87 n/a
2022 09 05 23:00 Wet 298.3 0.0 0.00 66.3 19.0 89.9 n/a
2022 09 05 24:00 Wet 327.4 0.0 0.00 65.5 18.6 93.9 n/a
2022 09 06 1:00 Wet 340.1 0.0 0.00 65.2 18.4 97.5 n/a
2022 09 06 2:00 Wet 346.7 0.0 0.00 65.0 18.3 98.3 n/a
2022 09 06 3:00 Wet 360.3 0.0 0.00 64.2 17.9 98.7 n/a
2022 09 06 4:00 Wet 359.0 0.0 0.00 63.6 17.6 99.1 n/a
2022 09 06 5:00 Wet 352.1 0.0 0.00 63.0 17.2 99.5 n/a
2022 09 06 6:00 Wet 349.3 0.0 0.00 62.6 17.0 99.8 n/a
2022 09 06 7:00 Wet 344.8 0.0 0.00 62.3 16.8 99.8 n/a
2022 09 06 8:00 Wet 304.0 0.0 0.00 63.8 17.7 99.8 n/a
2022 09 06 9:00 267.1 0.0 0.00 66.0 18.9 99.8 n/a
2022 09 06 10:00 263.1 0.0 0.00 67.6 19.8 99.8 n/a
2022 09 06 11:00 261.1 0.0 0.00 70.0 21.1 94.9 n/a
2022 09 06 12:00 259.4 0.0 0.00 74.8 23.8 76.4 n/a
2022 09 06 13:00 259.2 0.0 0.00 76.8 24.9 71.16 n/a
2022 09 06 14:00 259.3 0.0 0.00 77.5 25.3 67.7 n/a
2022 09 06 15:00 259.5 0.0 0.00 77.9 25.5 64.41 n/a
2022 09 06 16:00 260.0 0.0 0.00 78.6 25.9 61.71 n/a
2022 09 06 17:00 260.0 0.0 0.00 78.5 25.8 59.85 n/a
2022 09 06 18:00 260.0 0.0 0.00 77.7 25.4 60.67 n/a
2022 09 06 19:00 261.3 0.0 0.00 75.0 23.9 67.92 n/a
2022 09 06 20:00 264.1 0.0 0.00 71.5 21.9 77.86 n/a
2022 09 06 21:00 265.6 0.0 0.00 70.0 21.1 80.7 n/a
2022 09 06 22:00 268.8 0.0 0.00 68.5 20.3 83.3 n/a
2022 09 06 23:00 266.4 0.0 0.00 67.9 19.9 82.9 n/a
2022 09 06 24:00 269.0 0.0 0.00 67.2 19.6 84.8 n/a
2022 09 07 1:00 Wet 298.3 0.0 0.00 65.8 18.8 88.4 n/a
2022 09 07 2:00 Wet 326.4 0.0 0.00 65.2 18.5 90.7 n/a
2022 09 07 3:00 Wet 343.5 0.0 0.00 64.3 18.0 94.9 n/a
2022 09 07 4:00 Wet 356.9 0.0 0.00 63.4 17.4 97.5 n/a
2022 09 07 5:00 Wet 364.4 0.0 0.00 63.4 17.4 98.6 n/a
2022 09 07 6:00 Wet 360.9 0.0 0.00 62.2 16.8 98.9 n/a
2022 09 07 7:00 Wet 341.5 0.0 0.00 62.5 17.0 99.4 n/a
2022 09 07 8:00 267.3 0.0 0.00 65.7 18.7 93.3 n/a
2022 09 07 9:00 259.7 0.0 0.00 70.9 21.6 80 n/a
2022 09 07 10:00 258.7 0.0 0.00 74.6 23.7 68.65 n/a
2022 09 07 11:00 257.8 0.0 0.00 76.9 24.9 61.45 n/a
2022 09 07 12:00 258.4 0.0 0.00 77.3 25.2 59.42 n/a
2022 09 07 13:00 257.8 0.0 0.00 79.2 26.2 52.68 n/a
2022 09 07 14:00 257.6 0.0 0.00 80.9 27.2 47.86 n/a
2022 09 07 15:00 257.7 0.0 0.00 81.7 27.6 44.18 n/a
2022 09 07 16:00 258.0 0.0 0.00 82.0 27.8 45.13 n/a
2022 09 07 17:00 258.2 0.0 0.00 81.2 27.4 45.24 n/a
2022 09 07 18:00 258.6 0.0 0.00 80.4 26.9 47.41 n/a
2022 09 07 19:00 259.7 0.0 0.00 76.7 24.9 56.24 n/a
2022 09 07 20:00 261.2 0.0 0.00 71.7 22.1 68.07 n/a
2022 09 07 21:00 262.1 0.0 0.00 69.6 20.9 73.09 n/a
2022 09 07 22:00 263.8 0.0 0.00 67.4 19.7 78.35 n/a
2022 09 07 23:00 263.7 0.0 0.00 66.7 19.3 76.61 n/a
2022 09 07 24:00 265.0 0.0 0.00 65.7 18.7 76.73 n/a
2022 09 08 1:00 268.6 0.0 0.00 64.0 17.8 82 n/a
2022 09 08 2:00 273.3 0.0 0.00 62.8 17.1 84.6 n/a
2022 09 08 3:00 Wet 292.8 0.0 0.00 61.5 16.4 87.7 n/a
2022 09 08 4:00 Wet 320.4 0.0 0.00 60.6 15.9 88.9 n/a
2022 09 08 5:00 Wet 357.1 0.0 0.00 59.5 15.3 90.8 n/a
2022 09 08 6:00 Wet 375.6 0.0 0.00 58.7 14.8 95.4 n/a
2022 09 08 7:00 Wet 351.9 0.0 0.00 59.2 15.1 97.1 n/a
2022 09 08 8:00 273.4 0.0 0.00 66.1 18.9 83.8 n/a
2022 09 08 9:00 259.6 0.0 0.00 70.3 21.3 73.44 n/a
2022 09 08 10:00 258.3 0.0 0.00 74.5 23.6 60.49 n/a
2022 09 08 11:00 257.2 0.0 0.00 76.9 25.0 52.19 n/a
2022 09 08 12:00 256.8 0.0 0.00 78.1 25.6 48.94 n/a
2022 09 08 13:00 256.7 0.0 0.00 79.3 26.3 46.53 n/a
2022 09 08 14:00 256.7 0.0 0.00 80.6 27.0 42.95 n/a
2022 09 08 15:00 257.2 0.0 0.00 81.2 27.3 42.3 n/a
2022 09 08 16:00 257.6 0.0 0.00 81.5 27.5 42.04 n/a
2022 09 08 17:00 258.0 0.0 0.00 81.6 27.6 42.77 n/a
2022 09 08 18:00 258.0 0.0 0.00 80.6 27.0 46.82 n/a
2022 09 08 19:00 259.3 0.0 0.00 76.5 24.7 55.71 n/a
2022 09 08 20:00 260.7 0.0 0.00 71.9 22.1 65.3 n/a
2022 09 08 21:00 260.7 0.0 0.00 70.0 21.1 66.82 n/a
2022 09 08 22:00 261.1 0.0 0.00 68.6 20.3 69.33 n/a
2022 09 08 23:00 261.4 0.0 0.00 67.8 19.9 70.24 n/a
2022 09 08 24:00 261.4 0.0 0.00 67.7 19.9 69.39 n/a
2022 09 09 1:00 261.5 0.0 0.00 66.8 19.3 71.52 n/a
2022 09 09 2:00 262.2 0.0 0.00 64.9 18.3 75.48 n/a
2022 09 09 3:00 263.0 0.0 0.00 63.8 17.7 77.64 n/a
2022 09 09 4:00 263.6 0.0 0.00 62.8 17.1 79.51 n/a
2022 09 09 5:00 265.9 0.0 0.00 61.8 16.5 81.8 n/a
2022 09 09 6:00 266.3 0.0 0.00 61.0 16.1 83.7 n/a
2022 09 09 7:00 264.3 0.0 0.00 61.6 16.4 82.9 n/a
2022 09 09 8:00 260.6 0.0 0.00 65.8 18.8 76.18 n/a
2022 09 09 9:00 259.6 0.0 0.00 70.0 21.1 70.52 n/a
2022 09 09 10:00 258.9 0.0 0.00 73.7 23.2 64.84 n/a
2022 09 09 11:00 257.4 0.0 0.00 77.5 25.3 57.57 n/a
2022 09 09 12:00 256.6 0.0 0.00 81.0 27.2 50.51 n/a
2022 09 09 13:00 256.5 0.0 0.00 82.4 28.0 44.98 n/a
2022 09 09 14:00 256.6 0.0 0.00 83.9 28.8 40.87 n/a
2022 09 09 15:00 256.7 0.0 0.00 84.5 29.2 40.65 n/a
2022 09 09 16:00 257.2 0.0 0.00 85.0 29.5 38.12 n/a
2022 09 09 17:00 257.3 0.0 0.00 84.9 29.4 39.13 n/a
2022 09 09 18:00 257.5 0.0 0.00 83.1 28.4 43.8 n/a
2022 09 09 19:00 258.8 0.0 0.00 78.9 26.1 52.73 n/a
2022 09 09 20:00 259.8 0.0 0.00 74.5 23.6 61.01 n/a
2022 09 09 21:00 260.0 0.0 0.00 72.0 22.2 63.24 n/a
2022 09 09 22:00 260.8 0.0 0.00 69.8 21.0 67.18 n/a
2022 09 09 23:00 261.0 0.0 0.00 68.9 20.5 68.36 n/a
2022 09 09 24:00 261.1 0.0 0.00 68.4 20.2 68.74 n/a
2022 09 10 1:00 261.4 0.0 0.00 67.0 19.4 71.09 n/a
2022 09 10 2:00 261.8 0.0 0.00 65.9 18.8 73.23 n/a
2022 09 10 3:00 263.2 0.0 0.00 64.1 17.9 77.56 n/a
2022 09 10 4:00 264.7 0.0 0.00 62.7 17.1 81.6 n/a
2022 09 10 5:00 264.9 0.0 0.00 62.2 16.8 84.1 n/a
2022 09 10 6:00 263.9 0.0 0.00 62.8 17.1 82.1 n/a
2022 09 10 7:00 263.2 0.0 0.00 63.1 17.3 82 n/a
2022 09 10 8:00 260.3 0.0 0.00 66.3 19.1 76.27 n/a
2022 09 10 9:00 258.8 0.0 0.00 70.6 21.5 67.74 n/a
2022 09 10 10:00 257.2 0.0 0.00 75.3 24.0 58.86 n/a
2022 09 10 11:00 256.6 0.0 0.00 78.7 25.9 50.95 n/a
2022 09 10 12:00 256.4 0.0 0.00 80.4 26.9 50.52 n/a
2022 09 10 13:00 256.1 0.0 0.00 82.3 28.0 47.43 n/a
2022 09 10 14:00 256.2 0.0 0.00 84.0 28.9 43.61 n/a
2022 09 10 15:00 257.0 0.0 0.00 83.7 28.7 45.68 n/a
2022 09 10 16:00 258.9 0.0 0.00 76.3 24.6 61.54 n/a
2022 09 10 17:00 259.6 0.0 0.00 71.6 22.0 67.5 n/a
2022 09 10 18:00 260.7 0.0 0.00 67.7 19.8 75.72 n/a
2022 09 10 19:00 265.3 0.0 0.00 63.6 17.6 87 n/a
2022 09 10 20:00 277.8 0.0 0.00 61.4 16.4 89.2 n/a
2022 09 10 21:00 269.8 0.0 0.25 60.2 15.6 88.2 n/a
2022 09 10 22:00 Wet 307.6 0.3 7.62 59.1 15.1 90.4 n/a
2022 09 10 23:00 Wet 336.1 0.0 0.25 58.4 14.7 96.1 n/a
2022 09 10 24:00 Wet 320.8 0.0 0.25 58.0 14.5 95.6 n/a
2022 09 11 1:00 Wet 312.8 0.0 0.76 57.4 14.1 96.4 n/a
2022 09 11 2:00 Wet 313.7 0.0 0.25 56.9 13.8 96.7 n/a
2022 09 11 3:00 Wet 292.4 0.0 0.00 56.8 13.8 93.3 n/a
2022 09 11 4:00 268.0 0.0 0.00 56.6 13.7 90.8 n/a
2022 09 11 5:00 279.7 0.0 0.00 56.0 13.4 95.3 n/a
2022 09 11 6:00 Wet 293.2 0.0 0.00 55.4 13.0 96.4 n/a
2022 09 11 7:00 Wet 294.1 0.0 0.00 55.3 13.0 96 n/a
2022 09 11 8:00 262.2 0.0 0.00 57.8 14.3 89.9 n/a
2022 09 11 9:00 260.6 0.0 0.00 61.0 16.1 80 n/a
2022 09 11 10:00 259.3 0.0 0.00 64.6 18.1 67.42 n/a
2022 09 11 11:00 258.3 0.0 0.00 67.4 19.7 55.88 n/a
2022 09 11 12:00 257.4 0.0 0.00 69.3 20.7 43.88 n/a
2022 09 11 13:00 257.3 0.0 0.00 70.6 21.5 39.99 n/a
2022 09 11 14:00 257.2 0.0 0.00 71.8 22.1 36.48 n/a
2022 09 11 15:00 257.1 0.0 0.00 72.5 22.5 33.38 n/a
2022 09 11 16:00 257.3 0.0 0.00 72.8 22.6 31.25 n/a
2022 09 11 17:00 257.3 0.0 0.00 72.5 22.5 31.34 n/a
2022 09 11 18:00 257.4 0.0 0.00 71.3 21.8 33.93 n/a
2022 09 11 19:00 258.6 0.0 0.00 67.9 19.9 41.18 n/a
2022 09 11 20:00 260.1 0.0 0.00 62.0 16.7 56.15 n/a
2022 09 11 21:00 261.7 0.0 0.00 58.4 14.7 67.66 n/a
2022 09 11 22:00 262.7 0.0 0.00 56.7 13.7 71.1 n/a
2022 09 11 23:00 272.3 0.0 0.00 54.6 12.6 79.94 n/a
2022 09 11 24:00 Wet 300.8 0.0 0.00 53.2 11.8 85.7 n/a
2022 09 12 1:00 Wet 325.3 0.0 0.00 52.4 11.4 87.1 n/a
2022 09 12 2:00 Wet 366.9 0.0 0.00 51.6 10.9 89.2 n/a
2022 09 12 3:00 Wet 391.6 0.0 0.00 50.5 10.3 91.1 n/a
2022 09 12 4:00 Wet 390.1 0.0 0.00 50.0 10.0 91 n/a
2022 09 12 5:00 Wet 393.3 0.0 0.00 49.2 9.5 90.7 n/a
2022 09 12 6:00 Wet 379.8 0.0 0.00 48.7 9.3 90.3 n/a
2022 09 12 7:00 Wet 328.9 0.0 0.00 49.4 9.7 86.2 n/a
2022 09 12 8:00 262.3 0.0 0.00 53.5 11.9 79.3 n/a
2022 09 12 9:00 258.7 0.0 0.00 59.7 15.4 69.46 n/a
2022 09 12 10:00 257.5 0.0 0.00 67.1 19.5 52.77 n/a
2022 09 12 11:00 256.7 0.0 0.00 72.3 22.4 40.48 n/a
2022 09 12 12:00 256.1 0.0 0.00 76.2 24.5 34.02 n/a
2022 09 12 13:00 255.9 0.0 0.00 78.2 25.7 30.47 n/a
2022 09 12 14:00 255.9 0.0 0.00 79.3 26.3 28.72 n/a
2022 09 12 15:00 255.9 0.0 0.00 80.1 26.7 29.01 n/a
2022 09 12 16:00 256.0 0.0 0.00 80.7 27.1 27.45 n/a
2022 09 12 17:00 256.0 0.0 0.00 80.5 27.0 27.49 n/a
2022 09 12 18:00 256.7 0.0 0.00 79.2 26.2 31.92 n/a
2022 09 12 19:00 257.9 0.0 0.00 74.9 23.9 40.01 n/a
2022 09 12 20:00 259.3 0.0 0.00 68.4 20.2 53.96 n/a
2022 09 12 21:00 260.6 0.0 0.00 64.4 18.0 63.97 n/a
2022 09 12 22:00 261.4 0.0 0.00 62.3 16.9 68.56 n/a
2022 09 12 23:00 262.5 0.0 0.00 60.9 16.1 72.34 n/a
2022 09 12 24:00 262.0 0.0 0.00 61.0 16.1 67.29 n/a
2022 09 13 1:00 261.6 0.0 0.00 60.0 15.5 67.35 n/a
2022 09 13 2:00 262.2 0.0 0.00 58.6 14.8 70 n/a
2022 09 13 3:00 262.3 0.0 0.00 58.0 14.5 69.39 n/a
2022 09 13 4:00 262.1 0.0 0.00 57.3 14.0 68.53 n/a
2022 09 13 5:00 263.9 0.0 0.00 55.1 12.8 74.85 n/a
2022 09 13 6:00 264.2 0.0 0.00 54.3 12.4 76.41 n/a
2022 09 13 7:00 262.5 0.0 0.00 55.0 12.8 74.33 n/a
2022 09 13 8:00 260.8 0.0 0.00 56.9 13.8 74.1 n/a
2022 09 13 9:00 258.9 0.0 0.00 62.1 16.7 67.18 n/a
2022 09 13 10:00 257.4 0.0 0.00 68.6 20.3 55.07 n/a
2022 09 13 11:00 256.3 0.0 0.00 75.3 24.1 46.94 n/a
2022 09 13 12:00 255.7 0.0 0.00 80.9 27.2 38.84 n/a
2022 09 13 13:00 255.2 0.0 0.00 84.2 29.0 34.63 n/a
2022 09 13 14:00 255.1 0.0 0.00 86.2 30.1 30.59 n/a
2022 09 13 15:00 255.4 0.0 0.00 86.8 30.5 28.64 n/a
2022 09 13 16:00 255.7 0.0 0.00 87.0 30.6 29.1 n/a
2022 09 13 17:00 256.0 0.0 0.00 85.5 29.7 32.17 n/a
2022 09 13 18:00 256.7 0.0 0.00 82.7 28.1 38.56 n/a
2022 09 13 19:00 257.7 0.0 0.00 78.0 25.6 44.89 n/a
2022 09 13 20:00 258.1 0.0 0.00 74.9 23.8 46.49 n/a
2022 09 13 21:00 258.7 0.0 0.00 72.1 22.3 49.26 n/a
2022 09 13 22:00 259.1 0.0 0.00 69.7 21.0 51.91 n/a
2022 09 13 23:00 259.2 0.0 0.00 68.2 20.1 53.94 n/a
2022 09 13 24:00 259.3 0.0 0.00 66.6 19.2 57.15 n/a
2022 09 14 1:00 259.6 0.0 0.00 65.5 18.6 60.09 n/a
2022 09 14 2:00 260.0 0.0 0.00 64.0 17.8 62.94 n/a
2022 09 14 3:00 260.3 0.0 0.00 62.8 17.1 65.37 n/a
2022 09 14 4:00 260.9 0.0 0.00 61.6 16.4 68.36 n/a
2022 09 14 5:00 261.4 0.0 0.00 60.8 16.0 70.24 n/a
2022 09 14 6:00 261.8 0.0 0.00 59.7 15.4 72.99 n/a
2022 09 14 7:00 261.2 0.0 0.00 59.9 15.5 72.61 n/a
2022 09 14 8:00 259.1 0.0 0.00 63.3 17.4 66.89 n/a
2022 09 14 9:00 258.2 0.0 0.00 68.1 20.0 58.94 n/a
2022 09 14 10:00 257.4 0.0 0.00 73.0 22.8 52.53 n/a
2022 09 14 11:00 256.6 0.0 0.00 78.5 25.9 42.46 n/a
2022 09 14 12:00 256.0 0.0 0.00 81.6 27.5 38.08 n/a
2022 09 14 13:00 255.8 0.0 0.00 84.2 29.0 32.7 n/a
2022 09 14 14:00 255.4 0.0 0.00 85.4 29.6 28.53 n/a
2022 09 14 15:00 255.4 0.0 0.00 86.1 30.1 26.72 n/a
2022 09 14 16:00 255.8 0.0 0.00 86.1 30.1 26.87 n/a
2022 09 14 17:00 255.9 0.0 0.00 85.4 29.6 28.58 n/a
2022 09 14 18:00 256.4 0.0 0.00 82.5 28.1 33.92 n/a
2022 09 14 19:00 257.8 0.0 0.00 77.3 25.2 43.68 n/a
2022 09 14 20:00 258.0 0.0 0.00 74.8 23.8 45.1 n/a
2022 09 14 21:00 258.3 0.0 0.00 72.1 22.3 47.92 n/a
2022 09 14 22:00 258.8 0.0 0.00 69.2 20.7 52.15 n/a
2022 09 14 23:00 259.4 0.0 0.00 67.2 19.5 56.52 n/a
2022 09 14 24:00 259.9 0.0 0.00 65.8 18.8 60.22 n/a
2022 09 15 1:00 259.3 0.0 0.00 66.9 19.4 57.57 n/a
2022 09 15 2:00 260.0 0.0 0.00 65.4 18.6 61.7 n/a
2022 09 15 3:00 260.0 0.0 0.00 65.1 18.4 63.23 n/a
2022 09 15 4:00 260.5 0.0 0.00 63.8 17.7 67.58 n/a
2022 09 15 5:00 261.0 0.0 0.00 62.7 17.0 71.75 n/a
2022 09 15 6:00 261.5 0.0 0.00 61.6 16.5 74.58 n/a
2022 09 15 7:00 261.3 0.0 0.00 61.5 16.4 75.02 n/a
2022 09 15 8:00 259.7 0.0 0.00 64.6 18.1 69.65 n/a
2022 09 15 9:00 258.6 0.0 0.00 68.2 20.1 64.01 n/a
2022 09 15 10:00 258.2 0.0 0.00 71.4 21.9 59.59 n/a
2022 09 15 11:00 257.3 0.0 0.00 75.5 24.2 53.66 n/a
2022 09 15 12:00 257.0 0.0 0.00 79.1 26.2 42.61 n/a
2022 09 15 13:00 256.7 0.0 0.00 80.3 26.8 40.16 n/a
2022 09 15 14:00 256.7 0.0 0.00 81.3 27.4 37.69 n/a
2022 09 15 15:00 256.6 0.0 0.00 81.7 27.6 37.59 n/a
2022 09 15 16:00 256.9 0.0 0.00 80.5 27.0 38.28 n/a
2022 09 15 17:00 257.2 0.0 0.00 80.2 26.8 41.12 n/a
2022 09 15 18:00 257.4 0.0 0.00 79.2 26.2 43.16 n/a
2022 09 15 19:00 258.2 0.0 0.00 76.1 24.5 47.31 n/a
2022 09 15 20:00 258.7 0.0 0.00 73.0 22.8 51.57 n/a
2022 09 15 21:00 258.7 0.0 0.00 71.5 22.0 53.44 n/a
2022 09 15 22:00 259.3 0.0 0.00 70.2 21.2 58.17 n/a
2022 09 15 23:00 259.7 0.0 0.00 68.5 20.3 62.04 n/a
2022 09 15 24:00 260.0 0.0 0.00 67.2 19.5 65.42 n/a
2022 09 16 1:00 260.4 0.0 0.00 66.2 19.0 69.18 n/a
2022 09 16 2:00 260.8 0.0 0.00 65.3 18.5 72.54 n/a
2022 09 16 3:00 261.9 0.0 0.00 63.6 17.5 77.03 n/a
2022 09 16 4:00 262.4 0.0 0.00 62.7 17.1 79.94 n/a
2022 09 16 5:00 262.8 0.0 0.00 62.1 16.7 81.4 n/a
2022 09 16 6:00 263.1 0.0 0.00 61.6 16.4 82.5 n/a
2022 09 16 7:00 263.0 0.0 0.00 61.2 16.2 83.4 n/a
2022 09 16 8:00 260.4 0.0 0.00 63.8 17.7 78.22 n/a
2022 09 16 9:00 259.1 0.0 0.00 69.6 20.9 66.96 n/a
2022 09 16 10:00 258.2 0.0 0.00 74.7 23.7 57.46 n/a
2022 09 16 11:00 257.5 0.0 0.00 77.9 25.5 49.81 n/a
2022 09 16 12:00 256.8 0.0 0.00 80.4 26.9 43.09 n/a
2022 09 16 13:00 257.2 0.0 0.00 80.4 26.9 42.88 n/a
2022 09 16 14:00 256.6 0.0 0.00 82.2 27.9 39.62 n/a
2022 09 16 15:00 257.2 0.0 0.00 81.6 27.5 40.6 n/a
2022 09 16 16:00 257.0 0.0 0.00 82.7 28.1 39.38 n/a
2022 09 16 17:00 257.3 0.0 0.00 81.7 27.6 40.58 n/a
2022 09 16 18:00 257.5 0.0 0.00 80.6 27.0 43.71 n/a
2022 09 16 19:00 258.4 0.0 0.00 76.6 24.8 51.06 n/a
2022 09 16 20:00 258.7 0.0 0.00 73.9 23.3 54.7 n/a
2022 09 16 21:00 259.2 0.0 0.00 72.8 22.7 56.21 n/a
2022 09 16 22:00 259.3 0.0 0.00 71.9 22.2 58.2 n/a
2022 09 16 23:00 259.3 0.0 0.00 71.3 21.8 58.43 n/a
2022 09 16 24:00 259.3 0.0 0.00 71.2 21.8 58.05 n/a
2022 09 17 1:00 259.3 0.0 0.00 70.4 21.3 58.69 n/a
2022 09 17 2:00 259.3 0.0 0.00 70.2 21.2 58.03 n/a
2022 09 17 3:00 259.3 0.0 0.00 70.1 21.2 59.27 n/a
2022 09 17 4:00 259.4 0.0 0.00 69.5 20.9 62.01 n/a
2022 09 17 5:00 260.0 0.0 0.00 68.8 20.5 64.66 n/a
2022 09 17 6:00 260.3 0.0 0.00 67.5 19.7 68.23 n/a
2022 09 17 7:00 260.5 0.0 0.00 66.8 19.3 70.47 n/a
2022 09 17 8:00 259.5 0.0 0.00 68.6 20.3 68.53 n/a
2022 09 17 9:00 258.4 0.0 0.00 73.8 23.2 61.05 n/a
2022 09 17 10:00 258.0 0.0 0.00 78.4 25.8 56.55 n/a
2022 09 17 11:00 257.7 0.0 0.00 81.6 27.6 53.07 n/a
2022 09 17 12:00 257.3 0.0 0.00 84.9 29.4 49.59 n/a
2022 09 17 13:00 257.3 0.0 0.00 87.4 30.8 46.3 n/a
2022 09 17 14:00 257.0 0.0 0.00 89.3 31.8 42.82 n/a
2022 09 17 15:00 256.9 0.0 0.00 90.2 32.3 40.04 n/a
2022 09 17 16:00 257.2 0.0 0.00 89.2 31.8 39.95 n/a
2022 09 17 17:00 257.3 0.0 0.00 87.8 31.0 43.48 n/a
2022 09 17 18:00 257.9 0.0 0.00 85.9 29.9 46.17 n/a
2022 09 17 19:00 258.0 0.0 0.00 84.5 29.2 47.49 n/a
2022 09 17 20:00 258.1 0.0 0.00 82.5 28.1 50.1 n/a
2022 09 17 21:00 258.6 0.0 0.00 80.5 26.9 52.91 n/a
2022 09 17 22:00 258.7 0.0 0.00 78.4 25.8 55.63 n/a
2022 09 17 23:00 258.8 0.0 0.00 77.8 25.4 56.93 n/a
2022 09 17 24:00 259.3 0.0 0.00 76.8 24.9 60.71 n/a
2022 09 18 1:00 259.3 0.0 0.00 76.3 24.6 62.49 n/a
2022 09 18 2:00 259.3 0.0 0.00 76.1 24.5 63.59 n/a
2022 09 18 3:00 259.9 0.0 0.00 75.3 24.1 66.07 n/a
2022 09 18 4:00 260.0 0.0 0.00 74.9 23.8 68.58 n/a
2022 09 18 5:00 260.0 0.0 0.00 76.4 24.7 66.25 n/a
2022 09 18 6:00 261.9 0.0 0.00 74.9 23.9 70.51 n/a
2022 09 18 7:00 261.6 0.0 0.00 72.7 22.6 74.57 n/a
2022 09 18 8:00 260.4 0.0 0.00 75.2 24.0 73.19 n/a
2022 09 18 9:00 259.3 0.0 0.00 78.0 25.6 69.28 n/a
2022 09 18 10:00 258.5 0.0 0.00 82.3 27.9 61.68 n/a
2022 09 18 11:00 257.8 0.0 0.00 87.0 30.6 52.82 n/a
2022 09 18 12:00 257.9 0.0 0.00 88.9 31.6 48.45 n/a
2022 09 18 13:00 257.6 0.0 0.00 90.9 32.7 45.25 n/a
2022 09 18 14:00 257.0 0.0 0.00 93.6 34.2 40.71 n/a
2022 09 18 15:00 256.9 0.0 0.00 94.0 34.5 38.6 n/a
2022 09 18 16:00 256.6 0.0 0.00 94.6 34.8 35.88 n/a
2022 09 18 17:00 256.6 0.0 0.00 93.6 34.2 35.28 n/a
2022 09 18 18:00 256.7 0.0 0.00 91.6 33.1 36.86 n/a
2022 09 18 19:00 257.4 0.0 0.00 87.7 30.9 41.72 n/a
2022 09 18 20:00 258.1 0.0 0.00 84.3 29.1 50.22 n/a
2022 09 18 21:00 258.7 0.0 0.00 82.5 28.1 53.25 n/a
2022 09 18 22:00 258.9 0.0 0.00 80.4 26.9 56.78 n/a
2022 09 18 23:00 259.3 0.0 0.00 79.5 26.4 59.17 n/a
2022 09 18 24:00 259.7 0.0 0.00 77.9 25.5 62.27 n/a
2022 09 19 1:00 260.3 0.0 0.00 75.8 24.4 66.8 n/a
2022 09 19 2:00 260.7 0.0 0.00 74.4 23.6 69.22 n/a
2022 09 19 3:00 260.7 0.0 0.00 73.5 23.0 69.24 n/a
2022 09 19 4:00 260.7 0.0 0.00 73.2 22.9 67.55 n/a
2022 09 19 5:00 260.7 0.0 0.00 72.0 22.2 69.35 n/a
2022 09 19 6:00 261.2 0.0 0.00 71.0 21.7 71.27 n/a
2022 09 19 7:00 261.0 0.0 0.00 70.8 21.5 72.44 n/a
2022 09 19 8:00 259.2 0.0 0.00 74.4 23.6 66.96 n/a
2022 09 19 9:00 258.2 0.0 0.00 79.2 26.2 60.24 n/a
2022 09 19 10:00 257.3 0.0 0.00 83.8 28.8 51.8 n/a
2022 09 19 11:00 256.5 0.0 0.00 87.7 30.9 45.7 n/a
2022 09 19 12:00 256.0 0.0 0.00 91.2 32.9 40.17 n/a
2022 09 19 13:00 255.9 0.0 0.00 93.4 34.1 36.21 n/a
2022 09 19 14:00 255.9 0.0 0.00 94.7 34.8 33.01 n/a
2022 09 19 15:00 255.7 0.0 0.00 95.4 35.2 30.22 n/a
2022 09 19 16:00 255.9 0.0 0.00 95.4 35.2 29.74 n/a
2022 09 19 17:00 255.9 0.0 0.00 94.3 34.6 30.54 n/a
2022 09 19 18:00 256.3 0.0 0.00 91.0 32.8 34.15 n/a
2022 09 19 19:00 256.9 0.0 0.00 86.7 30.4 40.54 n/a
2022 09 19 20:00 257.3 0.0 0.00 84.3 29.1 42.34 n/a
2022 09 19 21:00 257.6 0.0 0.00 81.9 27.7 46.75 n/a
2022 09 19 22:00 258.0 0.0 0.00 80.1 26.7 49.8 n/a
2022 09 19 23:00 258.0 0.0 0.00 78.1 25.6 52.86 n/a
2022 09 19 24:00 258.6 0.0 0.00 76.7 24.9 54.62 n/a
2022 09 20 1:00 258.9 0.0 0.00 75.3 24.0 58.3 n/a
2022 09 20 2:00 259.3 0.0 0.00 73.8 23.2 61.75 n/a
2022 09 20 3:00 259.8 0.0 0.00 72.6 22.5 64.67 n/a
2022 09 20 4:00 260.0 0.0 0.00 72.4 22.5 65.73 n/a
2022 09 20 5:00 260.0 0.0 0.00 72.2 22.4 66.47 n/a
2022 09 20 6:00 260.4 0.0 0.00 70.7 21.5 69.82 n/a
2022 09 20 7:00 260.6 0.0 0.00 69.6 20.9 72.78 n/a
2022 09 20 8:00 258.6 0.0 0.00 73.2 22.9 67.19 n/a
2022 09 20 9:00 257.7 0.0 0.00 79.3 26.3 57.9 n/a
2022 09 20 10:00 256.9 0.0 0.00 84.8 29.3 49.5 n/a
2022 09 20 11:00 256.3 0.0 0.00 88.8 31.6 42.11 n/a
2022 09 20 12:00 255.9 0.0 0.00 91.7 33.2 35.4 n/a
2022 09 20 13:00 255.7 0.0 0.00 93.5 34.1 32.73 n/a
2022 09 20 14:00 255.4 0.0 0.00 94.5 34.7 30.79 n/a
2022 09 20 15:00 255.5 0.0 0.00 94.9 35.0 30.34 n/a
2022 09 20 16:00 255.8 0.0 0.00 94.6 34.8 29.77 n/a
2022 09 20 17:00 255.9 0.0 0.00 94.1 34.5 30.1 n/a
2022 09 20 18:00 255.9 0.0 0.00 91.5 33.0 33.09 n/a
2022 09 20 19:00 256.6 0.0 0.00 87.0 30.6 37.68 n/a
2022 09 20 20:00 256.9 0.0 0.00 84.1 28.9 41.41 n/a
2022 09 20 21:00 257.3 0.0 0.00 82.0 27.8 43.23 n/a
2022 09 20 22:00 257.4 0.0 0.00 79.6 26.5 46.33 n/a
2022 09 20 23:00 257.8 0.0 0.00 77.7 25.4 48.59 n/a
2022 09 20 24:00 258.0 0.0 0.00 75.8 24.3 51.49 n/a
2022 09 21 1:00 258.0 0.0 0.00 75.5 24.1 52.03 n/a
2022 09 21 2:00 258.5 0.0 0.00 74.2 23.4 54.91 n/a
2022 09 21 3:00 259.0 0.0 0.00 72.4 22.4 59.27 n/a
2022 09 21 4:00 259.4 0.0 0.00 70.9 21.6 63.07 n/a
2022 09 21 5:00 259.4 0.0 0.00 70.6 21.4 62.1 n/a
2022 09 21 6:00 259.6 0.0 0.00 69.9 21.1 64.93 n/a
2022 09 21 7:00 259.7 0.0 0.00 69.5 20.8 67.38 n/a
2022 09 21 8:00 258.1 0.0 0.00 72.9 22.7 63.69 n/a
2022 09 21 9:00 256.8 0.0 0.00 78.3 25.7 55.38 n/a
2022 09 21 10:00 256.4 0.0 0.00 82.6 28.1 49.7 n/a
2022 09 21 11:00 255.5 0.0 0.00 88.1 31.1 41.67 n/a
2022 09 21 12:00 255.3 0.0 0.00 91.1 32.8 37.57 n/a
2022 09 21 13:00 255.2 0.0 0.00 91.7 33.2 37.28 n/a
2022 09 21 14:00 255.4 0.0 0.00 92.5 33.6 35.07 n/a
2022 09 21 15:00 255.8 0.0 0.00 91.6 33.1 36.92 n/a
2022 09 21 16:00 256.9 0.0 0.00 87.1 30.6 50.95 n/a
2022 09 21 17:00 257.8 0.0 0.00 82.8 28.2 56.37 n/a
2022 09 21 18:00 258.0 0.0 0.00 79.3 26.3 56.41 n/a
2022 09 21 19:00 258.0 0.0 0.00 74.3 23.5 50.55 n/a
2022 09 21 20:00 258.0 0.0 0.00 70.3 21.3 52.9 n/a
2022 09 21 21:00 258.0 0.0 0.00 68.3 20.2 53.87 n/a
2022 09 21 22:00 258.0 0.0 0.00 66.3 19.1 51.45 n/a
2022 09 21 23:00 258.2 0.0 0.00 63.9 17.7 54.29 n/a
2022 09 21 24:00 Wet 313.7 0.2 5.59 58.8 14.9 73.77 n/a
2022 09 22 1:00 Wet 401.7 0.1 2.29 56.0 13.3 89.2 n/a
2022 09 22 2:00 Wet 330.3 0.0 0.25 56.6 13.6 89.7 n/a
2022 09 22 3:00 Wet 317.4 0.0 0.00 57.3 14.0 87.6 n/a
2022 09 22 4:00 Wet 332.6 0.1 1.52 57.3 14.1 87.5 n/a
2022 09 22 5:00 Wet 395.9 0.1 1.78 56.2 13.4 88.4 n/a
2022 09 22 6:00 Wet 371.1 0.0 0.51 56.1 13.4 90.1 n/a
2022 09 22 7:00 Wet 318.4 0.0 0.25 56.0 13.3 89.5 n/a
2022 09 22 8:00 269.7 0.0 0.00 55.6 13.1 85.2 n/a
2022 09 22 9:00 265.9 0.0 0.00 56.6 13.7 84.6 n/a
2022 09 22 10:00 261.2 0.0 0.00 58.3 14.6 77.6 n/a
2022 09 22 11:00 259.7 0.0 0.00 60.5 15.8 64.93 n/a
2022 09 22 12:00 258.6 0.0 0.00 62.2 16.8 58.81 n/a
2022 09 22 13:00 259.4 0.0 0.00 61.2 16.2 58.97 n/a
2022 09 22 14:00 258.7 0.0 0.00 61.5 16.4 54.72 n/a
2022 09 22 15:00 258.7 0.0 0.00 61.7 16.5 54.27 n/a
2022 09 22 16:00 258.7 0.0 0.00 62.0 16.6 53.43 n/a
2022 09 22 17:00 259.1 0.0 0.00 62.1 16.7 55.51 n/a
2022 09 22 18:00 259.5 0.0 0.00 61.6 16.5 60.18 n/a
2022 09 22 19:00 260.2 0.0 0.00 60.5 15.8 65.97 n/a
2022 09 22 20:00 261.6 0.0 0.00 59.8 15.4 70.38 n/a
2022 09 22 21:00 261.4 0.0 0.00 59.5 15.3 72.42 n/a
2022 09 22 22:00 262.0 0.0 0.00 58.4 14.7 77.69 n/a
2022 09 22 23:00 260.9 0.0 0.00 58.5 14.7 69.73 n/a
2022 09 22 24:00 260.8 0.0 0.00 57.5 14.2 68.88 n/a
2022 09 23 1:00 260.8 0.0 0.00 57.9 14.4 67.38 n/a
2022 09 23 2:00 260.6 0.0 0.00 58.0 14.4 65.77 n/a
2022 09 23 3:00 260.1 0.0 0.00 58.4 14.7 62.04 n/a
2022 09 23 4:00 260.1 0.0 0.00 58.5 14.8 60.51 n/a
2022 09 23 5:00 260.1 0.0 0.00 58.6 14.8 60.53 n/a
2022 09 23 6:00 260.1 0.0 0.00 58.4 14.6 62.76 n/a
2022 09 23 7:00 260.1 0.0 0.00 58.1 14.5 65.31 n/a
2022 09 23 8:00 260.0 0.0 0.00 59.1 15.1 65.29 n/a
2022 09 23 9:00 259.2 0.0 0.00 61.4 16.3 58.18 n/a
2022 09 23 10:00 259.2 0.0 0.00 62.7 17.1 53.73 n/a
2022 09 23 11:00 259.3 0.0 0.00 64.2 17.9 53.38 n/a
2022 09 23 12:00 268.0 0.0 0.00 63.2 17.3 60.37 n/a
2022 09 23 13:00 258.4 0.0 0.00 65.8 18.8 57.73 n/a
2022 09 23 14:00 258.4 0.0 0.00 68.6 20.4 53.78 n/a
2022 09 23 15:00 258.1 0.0 0.00 71.9 22.2 52.05 n/a
2022 09 23 16:00 258.0 0.0 0.00 77.3 25.1 45.28 n/a
2022 09 23 17:00 258.2 0.0 0.00 76.5 24.7 46.36 n/a
2022 09 23 18:00 258.7 0.0 0.00 75.0 23.9 51.68 n/a
2022 09 23 19:00 259.7 0.0 0.00 71.9 22.2 59.27 n/a
2022 09 23 20:00 260.0 0.0 0.00 66.8 19.3 67.58 n/a
2022 09 23 21:00 260.5 0.0 0.00 65.1 18.4 70.16 n/a
2022 09 23 22:00 261.2 0.0 0.00 62.8 17.1 75.03 n/a
2022 09 23 23:00 261.6 0.0 0.00 61.2 16.2 78.75 n/a
2022 09 23 24:00 263.4 0.0 0.00 59.4 15.2 84 n/a
2022 09 24 1:00 269.2 0.0 0.00 58.0 14.4 88.7 n/a
2022 09 24 2:00 279.7 0.0 0.00 57.1 13.9 90 n/a
2022 09 24 3:00 Wet 301.1 0.0 0.00 56.1 13.4 91 n/a
2022 09 24 4:00 Wet 342.8 0.0 0.00 54.7 12.6 93.7 n/a
2022 09 24 5:00 Wet 375.4 0.0 0.00 54.2 12.3 96.5 n/a
2022 09 24 6:00 Wet 368.6 0.0 0.00 53.4 11.9 97.4 n/a
2022 09 24 7:00 Wet 354.7 0.0 0.00 54.0 12.2 98.5 n/a
2022 09 24 8:00 272.2 0.0 0.00 57.7 14.3 95 n/a
2022 09 24 9:00 257.3 0.0 0.00 65.0 18.3 77.76 n/a
2022 09 24 10:00 256.2 0.0 0.00 71.4 21.9 65.08 n/a
2022 09 24 11:00 255.8 0.0 0.00 75.7 24.3 55.47 n/a
2022 09 24 12:00 255.6 0.0 0.00 79.4 26.4 47.25 n/a
2022 09 24 13:00 255.3 0.0 0.00 82.6 28.1 40.66 n/a
2022 09 24 14:00 255.3 0.0 0.00 84.6 29.2 34.79 n/a
2022 09 24 15:00 255.9 0.0 0.00 85.4 29.7 33.72 n/a
2022 09 24 16:00 256.1 0.0 0.00 86.0 30.0 32.63 n/a
2022 09 24 17:00 256.0 0.0 0.00 86.1 30.1 29.95 n/a
2022 09 24 18:00 256.8 0.0 0.00 84.4 29.1 35.04 n/a
2022 09 24 19:00 258.1 0.0 0.00 78.3 25.7 44.44 n/a
2022 09 24 20:00 259.6 0.0 0.00 71.5 21.9 59.32 n/a
2022 09 24 21:00 260.5 0.0 0.00 68.0 20.0 66.57 n/a
2022 09 24 22:00 262.4 0.0 0.00 65.9 18.9 72.32 n/a
2022 09 24 23:00 264.3 0.0 0.00 64.0 17.8 78.54 n/a
2022 09 24 24:00 269.1 0.0 0.00 62.8 17.1 82.6 n/a
2022 09 25 1:00 270.8 0.0 0.00 61.9 16.6 84.3 n/a
2022 09 25 2:00 261.3 0.0 0.00 65.6 18.6 67.45 n/a
2022 09 25 3:00 260.7 0.0 0.00 64.3 18.0 62.04 n/a
2022 09 25 4:00 260.9 0.0 0.00 62.8 17.1 62.91 n/a
2022 09 25 5:00 263.1 0.0 0.00 59.4 15.2 72.23 n/a
2022 09 25 6:00 264.8 0.0 0.00 57.3 14.1 75.64 n/a
2022 09 25 7:00 262.0 0.0 0.00 57.2 14.0 73.04 n/a
2022 09 25 8:00 258.6 0.0 0.00 59.9 15.5 68.86 n/a
2022 09 25 9:00 257.5 0.0 0.00 66.2 19.0 52.33 n/a
2022 09 25 10:00 256.4 0.0 0.00 70.3 21.3 41.66 n/a
2022 09 25 11:00 255.7 0.0 0.00 72.8 22.7 35.42 n/a
2022 09 25 12:00 255.3 0.0 0.00 75.0 23.9 30.51 n/a
2022 09 25 13:00 255.3 0.0 0.00 76.0 24.5 28.08 n/a
2022 09 25 14:00 255.3 0.0 0.00 76.6 24.8 26.31 n/a
2022 09 25 15:00 255.3 0.0 0.00 77.0 25.0 25.64 n/a
2022 09 25 16:00 255.4 0.0 0.00 77.0 25.0 23.61 n/a
2022 09 25 17:00 255.3 0.0 0.00 76.3 24.6 21.44 n/a
2022 09 25 18:00 255.8 0.0 0.00 74.1 23.4 23.87 n/a
2022 09 25 19:00 256.7 0.0 0.00 68.6 20.3 30.01 n/a
2022 09 25 20:00 257.8 0.0 0.00 63.4 17.5 39.09 n/a
2022 09 25 21:00 258.2 0.0 0.00 61.3 16.3 42.6 n/a
2022 09 25 22:00 259.3 0.0 0.00 57.1 13.9 54.35 n/a
2022 09 25 23:00 260.6 0.0 0.00 55.3 12.9 61.32 n/a
2022 09 25 24:00 260.5 0.0 0.00 55.2 12.9 60.47 n/a
2022 09 26 1:00 260.5 0.0 0.00 55.3 13.0 59.78 n/a
2022 09 26 2:00 261.1 0.0 0.00 52.6 11.4 67.44 n/a
2022 09 26 3:00 260.9 0.0 0.00 52.1 11.2 66.42 n/a
2022 09 26 4:00 262.6 0.0 0.00 50.3 10.2 71.14 n/a
2022 09 26 5:00 264.4 0.0 0.00 48.8 9.3 73.34 n/a
2022 09 26 6:00 268.5 0.0 0.00 47.9 8.8 73.77 n/a
2022 09 26 7:00 263.7 0.0 0.00 47.5 8.6 73.45 n/a
2022 09 26 8:00 257.9 0.0 0.00 52.5 11.4 64.57 n/a
2022 09 26 9:00 256.7 0.0 0.00 59.6 15.3 49.54 n/a
2022 09 26 10:00 255.1 0.0 0.00 65.2 18.4 34.05 n/a
2022 09 26 11:00 254.6 0.0 0.00 68.5 20.3 26.39 n/a
2022 09 26 12:00 254.6 0.0 0.00 69.9 21.0 24.67 n/a
2022 09 26 13:00 254.6 0.0 0.00 71.0 21.6 23.45 n/a
2022 09 26 14:00 254.6 0.0 0.00 71.6 22.0 23.25 n/a
2022 09 26 15:00 254.7 0.0 0.00 72.4 22.4 22.33 n/a
2022 09 26 16:00 255.2 0.0 0.00 72.7 22.6 23.21 n/a
2022 09 26 17:00 255.3 0.0 0.00 72.1 22.3 23.05 n/a
2022 09 26 18:00 255.7 0.0 0.00 69.8 21.0 25.63 n/a
2022 09 26 19:00 256.9 0.0 0.00 64.9 18.3 32.87 n/a
2022 09 26 20:00 258.0 0.0 0.00 59.6 15.3 43.08 n/a
2022 09 26 21:00 258.9 0.0 0.00 56.0 13.3 52.88 n/a
2022 09 26 22:00 259.8 0.0 0.00 53.6 12.0 61.32 n/a
2022 09 26 23:00 262.3 0.0 0.00 51.1 10.6 72.44 n/a
2022 09 26 24:00 262.9 0.0 0.00 50.1 10.0 74.34 n/a
2022 09 27 1:00 266.7 0.0 0.00 49.0 9.5 77.98 n/a
2022 09 27 2:00 271.0 0.0 0.00 48.0 8.9 82.2 n/a
2022 09 27 3:00 277.4 0.0 0.00 47.4 8.6 81.8 n/a
2022 09 27 4:00 273.7 0.0 0.00 47.2 8.5 79.05 n/a
2022 09 27 5:00 280.2 0.0 0.00 46.1 7.8 81.9 n/a
2022 09 27 6:00 Wet 295.4 0.0 0.00 45.0 7.2 86.3 n/a
2022 09 27 7:00 Wet 296.1 0.0 0.00 45.5 7.5 86.6 n/a
2022 09 27 8:00 258.2 0.0 0.00 52.6 11.4 70.78 n/a
2022 09 27 9:00 256.0 0.0 0.00 59.3 15.2 52.32 n/a
2022 09 27 10:00 254.6 0.0 0.00 65.5 18.6 40.27 n/a
2022 09 27 11:00 254.2 0.0 0.00 70.2 21.2 34.9 n/a
2022 09 27 12:00 254.0 0.0 0.00 74.6 23.7 29.96 n/a
2022 09 27 13:00 253.9 0.0 0.00 77.0 25.0 23.16 n/a
2022 09 27 14:00 253.8 0.0 0.00 79.0 26.1 21.58 n/a
2022 09 27 15:00 254.0 0.0 0.00 79.8 26.6 21.16 n/a
2022 09 27 16:00 254.5 0.0 0.00 80.1 26.7 21.57 n/a
2022 09 27 17:00 254.9 0.0 0.00 78.5 25.9 24.28 n/a
2022 09 27 18:00 255.5 0.0 0.00 75.0 23.9 29.64 n/a
2022 09 27 19:00 256.6 0.0 0.00 69.9 21.1 37.05 n/a
2022 09 27 20:00 257.4 0.0 0.00 65.4 18.5 44.53 n/a
2022 09 27 21:00 257.9 0.0 0.00 64.0 17.8 45.2 n/a
2022 09 27 22:00 257.5 0.0 0.00 63.2 17.3 45.9 n/a
2022 09 27 23:00 258.0 0.0 0.00 61.3 16.3 47.58 n/a
2022 09 27 24:00 258.1 0.0 0.00 59.2 15.1 51.17 n/a
2022 09 28 1:00 258.6 0.0 0.00 57.3 14.1 54.79 n/a
2022 09 28 2:00 258.8 0.0 0.00 55.5 13.1 58.59 n/a
2022 09 28 3:00 259.4 0.0 0.00 54.5 12.5 60.55 n/a
2022 09 28 4:00 259.5 0.0 0.00 53.0 11.6 64.11 n/a
2022 09 28 5:00 260.1 0.0 0.00 51.2 10.7 68.47 n/a
2022 09 28 6:00 260.1 0.0 0.00 50.3 10.2 70.11 n/a
2022 09 28 7:00 260.2 0.0 0.00 49.5 9.7 72.19 n/a
2022 09 28 8:00 258.1 0.0 0.00 52.0 11.1 66.89 n/a
2022 09 28 9:00 256.6 0.0 0.00 57.3 14.1 56.63 n/a
2022 09 28 10:00 255.6 0.0 0.00 62.3 16.9 47.45 n/a
2022 09 28 11:00 255.2 0.0 0.00 65.8 18.8 39.37 n/a
2022 09 28 12:00 254.6 0.0 0.00 68.4 20.2 32.56 n/a
2022 09 28 13:00 254.5 0.0 0.00 70.1 21.2 28.73 n/a
2022 09 28 14:00 254.6 0.0 0.00 70.9 21.6 26.2 n/a
2022 09 28 15:00 254.6 0.0 0.00 71.4 21.9 23.11 n/a
2022 09 28 16:00 255.2 0.0 0.00 71.2 21.8 21.76 n/a
CST mV in mm F C % mph
Year Month Day Hour Leaf Wetness Total
Precipitation
Avg. Temp Avg. Rel.
Humidity
Wind
Speed

Back to the top of the page